createdAt,value
2023-01-18T00:00:00.331Z,3.4
2023-01-18T00:10:00.303Z,3.3
2023-01-18T00:20:00.325Z,3.4
2023-01-18T00:30:00.326Z,3.4
2023-01-18T00:40:00.312Z,3.4
2023-01-18T00:50:00.347Z,3.5
2023-01-18T01:00:00.325Z,3.6
2023-01-18T01:10:00.335Z,3.6
2023-01-18T01:20:00.405Z,3.6
2023-01-18T01:30:00.312Z,3.8
2023-01-18T01:40:00.301Z,3.9
2023-01-18T01:50:00.338Z,4.0
2023-01-18T02:00:00.322Z,4.1
2023-01-18T02:10:00.432Z,4.3
2023-01-18T02:20:00.439Z,4.3
2023-01-18T02:30:00.474Z,4.3
2023-01-18T02:40:00.474Z,4.3
2023-01-18T02:50:00.569Z,4.4
2023-01-18T03:00:00.486Z,4.7
2023-01-18T03:10:00.938Z,4.8
2023-01-18T03:20:00.563Z,4.8
2023-01-18T03:30:00.436Z,4.8
2023-01-18T03:40:00.410Z,4.8
2023-01-18T03:50:00.363Z,4.8
2023-01-18T04:00:00.310Z,4.7
2023-01-18T04:10:00.340Z,4.6
2023-01-18T04:20:00.322Z,4.6
2023-01-18T04:30:00.345Z,4.6
2023-01-18T04:40:00.391Z,4.5
2023-01-18T04:50:00.317Z,4.5
2023-01-18T05:00:00.304Z,4.5
2023-01-18T05:10:00.337Z,4.3
2023-01-18T05:20:00.327Z,4.1
2023-01-18T05:30:00.321Z,3.8
2023-01-18T05:40:00.333Z,3.4
2023-01-18T05:50:00.306Z,3.0
2023-01-18T06:00:01.258Z,2.4
2023-01-18T06:10:00.321Z,1.8
2023-01-18T06:20:00.558Z,1.6
2023-01-18T06:30:00.422Z,1.6
2023-01-18T06:40:02.679Z,1.7
2023-01-18T06:50:00.571Z,1.7
2023-01-18T07:00:00.924Z,1.7
2023-01-18T07:10:00.427Z,1.8
2023-01-18T07:20:00.472Z,1.9
2023-01-18T07:30:00.485Z,1.9
2023-01-18T07:40:00.384Z,2.0
2023-01-18T07:50:00.318Z,2.1
2023-01-18T08:00:00.337Z,2.2
2023-01-18T08:10:00.340Z,2.4
2023-01-18T08:20:00.312Z,2.4
2023-01-18T08:30:00.335Z,2.5
2023-01-18T08:40:00.379Z,2.5
2023-01-18T08:50:00.324Z,2.8
2023-01-18T09:00:00.325Z,3.0
2023-01-18T09:10:00.347Z,3.0
2023-01-18T09:20:00.312Z,2.9
2023-01-18T09:30:00.331Z,2.9
2023-01-18T09:40:00.393Z,2.8
2023-01-18T09:50:00.328Z,2.9
2023-01-18T10:00:00.358Z,3.0
2023-01-18T10:10:00.372Z,3.0
2023-01-18T10:20:00.311Z,3.6
2023-01-18T10:30:00.324Z,4.0
2023-01-18T10:40:00.342Z,4.4
2023-01-18T10:50:00.315Z,5.4
2023-01-18T11:00:00.309Z,5.2
2023-01-18T11:10:00.480Z,5.3
2023-01-18T11:20:00.542Z,6.1
2023-01-18T11:30:00.664Z,7.1
2023-01-18T11:40:00.506Z,7.4
2023-01-18T11:50:05.637Z,7.7
2023-01-18T12:00:00.468Z,7.8
2023-01-18T12:10:00.533Z,7.6
2023-01-18T12:20:00.433Z,7.7
2023-01-18T12:30:00.398Z,8.3
2023-01-18T12:40:00.343Z,8.4
2023-01-18T12:50:00.366Z,7.5
2023-01-18T13:00:00.316Z,7.2
2023-01-18T13:10:00.320Z,7.2
2023-01-18T13:20:00.445Z,7.0
2023-01-18T13:30:00.334Z,6.9
2023-01-18T13:40:00.330Z,6.6
2023-01-18T13:50:00.325Z,6.4
2023-01-18T14:00:00.340Z,6.4
2023-01-18T14:10:00.331Z,6.2
2023-01-18T14:20:00.363Z,6.2
2023-01-18T14:30:00.355Z,6.1
2023-01-18T14:40:00.319Z,5.9
2023-01-18T14:50:00.413Z,5.6
2023-01-18T15:00:00.356Z,5.5
2023-01-18T15:10:00.327Z,5.2
2023-01-18T15:20:00.347Z,4.7
2023-01-18T15:30:00.353Z,4.2
2023-01-18T15:40:00.323Z,4.0
2023-01-18T15:50:00.333Z,4.0
2023-01-18T16:00:00.327Z,3.8
2023-01-18T16:10:00.403Z,4.0
2023-01-18T16:20:00.663Z,4.1
2023-01-18T16:30:00.442Z,4.3
2023-01-18T16:40:00.791Z,4.3
2023-01-18T16:50:00.694Z,4.4
2023-01-18T17:00:00.481Z,4.6
2023-01-18T17:10:00.994Z,4.6
2023-01-18T17:20:00.420Z,4.6
2023-01-18T17:30:01.508Z,4.7
2023-01-18T17:40:15.712Z,4.7
2023-01-18T17:50:00.314Z,4.7
2023-01-18T18:00:00.334Z,4.7
2023-01-18T18:10:00.317Z,4.7
2023-01-18T18:20:00.422Z,4.7
2023-01-18T18:30:00.422Z,4.6
2023-01-18T18:40:00.325Z,4.6
2023-01-18T18:50:00.420Z,4.5
2023-01-18T19:00:00.307Z,4.3
2023-01-18T19:10:00.327Z,4.4
2023-01-18T19:20:00.334Z,4.6
2023-01-18T19:30:00.384Z,4.5
2023-01-18T19:40:00.314Z,4.6
2023-01-18T19:50:00.348Z,4.6
2023-01-18T20:00:00.373Z,4.6
2023-01-18T20:10:00.314Z,4.6
2023-01-18T20:20:00.350Z,4.6
2023-01-18T20:30:00.324Z,4.6
2023-01-18T20:40:00.414Z,4.5
2023-01-18T20:50:00.553Z,4.6
2023-01-18T21:00:00.693Z,4.4
2023-01-18T21:10:00.408Z,4.4
2023-01-18T21:20:00.478Z,4.5
2023-01-18T21:30:00.413Z,4.3
2023-01-18T21:40:00.685Z,4.3
2023-01-18T21:50:17.938Z,4.3
2023-01-18T22:00:00.744Z,4.4
2023-01-18T22:10:06.186Z,4.4
2023-01-18T22:20:00.458Z,4.4
2023-01-18T22:30:00.344Z,4.4
2023-01-18T22:40:00.373Z,4.4
2023-01-18T22:50:00.352Z,4.4
2023-01-18T23:00:00.320Z,4.4
2023-01-18T23:10:00.324Z,4.3
2023-01-18T23:20:00.313Z,4.3
2023-01-18T23:30:00.388Z,4.3
2023-01-18T23:40:00.346Z,4.2
2023-01-18T23:50:00.332Z,4.2
